Time;durP1;ratioP1;P1;durP2;ratioP2;P2;SDS_P1;SDS_P2;PMS_P1;PMS_P2;Temp;Humidity;BMP_temperature;BMP_pressure;BME280_temperature;BME280_humidity;BME280_pressure;Samples;Min_cycle;Max_cycle;Signal;HPM_P1;HPM_P2
2021/08/27 00:00:59;;;;;;;22.70;20.20;;;;;;;13.36;82.72;99299.45;111422;1220;636216;-77
2021/08/27 00:05:08;;;;;;;14.00;12.20;;;;;;;13.34;82.65;99297.96;112227;1212;93971;-76
2021/08/27 00:09:16;;;;;;;16.80;13.90;;;;;;;13.36;82.68;99296.66;111904;1218;137447;-76
2021/08/27 00:13:14;;;;;;;;;;;;;;;;;;;;;
2021/08/27 00:17:47;;;;;;;13.90;9.40;;;;;;;13.36;82.74;99308.34;110499;1228;108131;-76
2021/08/27 00:21:27;;;;;;;14.00;10.00;;;;;;;13.34;82.60;99316.11;109855;1228;136174;-76
2021/08/27 00:30:04;;;;;;;10.70;8.50;;;;;;;13.19;82.55;99319.95;109208;1234;93983;-76
2021/08/27 00:37:35;;;;;;;9.50;8.30;;;;;;;13.10;83.02;99318.88;111419;1220;637929;-77
2021/08/27 00:41:43;;;;;;;8.40;7.20;;;;;;;13.11;83.13;99322.85;112288;1203;93866;-76
2021/08/27 00:45:53;;;;;;;8.60;7.20;;;;;;;13.08;83.28;99332.77;112017;1208;136511;-76
2021/08/27 00:50:01;;;;;;;7.90;6.90;;;;;;;13.09;83.42;99331.65;111965;1209;136482;-76
2021/08/27 00:54:35;;;;;;;8.60;6.30;;;;;;;13.14;83.43;99328.95;111637;1221;107208;-76
2021/08/27 00:58:56;;;;;;;10.50;6.70;;;;;;;13.20;83.40;99335.06;111092;1225;110708;-77
2021/08/27 01:44:06;;;;;;;9.40;7.60;;;;;;;13.55;82.90;99385.98;111880;1215;95094;-77
2021/08/27 01:48:42;;;;;;;11.20;7.10;;;;;;;13.58;82.76;99383.83;111710;1215;94829;-77
2021/08/27 01:52:49;;;;;;;9.80;7.10;;;;;;;13.65;82.80;99387.48;111459;1214;136883;-76
2021/08/27 01:56:31;;;;;;;10.80;8.20;;;;;;;13.72;82.80;99392.65;111231;1219;106847;-77
2021/08/27 02:05:07;;;;;;;8.70;7.50;;;;;;;13.86;82.44;99392.31;110006;1232;137087;-76
2021/08/27 02:12:38;;;;;;;8.90;7.50;;;;;;;13.79;82.31;99396.42;111263;1222;638265;-77
2021/08/27 02:16:47;;;;;;;11.70;8.00;;;;;;;13.78;82.40;99398.42;112159;1206;136676;-76
2021/08/27 02:21:06;;;;;;;;;;;;;;;;;;;;;
2021/08/27 02:25:05;;;;;;;13.30;8.50;;;;;;;13.65;82.46;99398.30;111938;1217;108867;-77
2021/08/27 02:29:14;;;;;;;12.20;9.50;;;;;;;13.62;82.52;99399.34;111867;1216;137201;-77
2021/08/27 02:45:42;;;;;;;;;;;;;;;;;;;;;
2021/08/27 02:54:23;;;;;;;14.40;10.80;;;;;;;13.79;82.79;99387.70;109753;1232;137953;-76
2021/08/27 03:06:44;;;;;;;14.90;12.20;;;;;;;13.89;82.52;99379.38;112137;1210;137399;-76
2021/08/27 03:10:56;;;;;;;19.90;12.50;;;;;;;13.94;82.57;99377.52;112290;1203;94173;-76
2021/08/27 03:19:56;;;;;;;15.90;11.80;;;;;;;14.06;82.63;99388.74;112186;1205;137538;-76
2021/08/27 03:23:59;;;;;;;19.60;15.30;;;;;;;14.12;82.41;99400.38;112242;1202;108488;-76
2021/08/27 03:32:51;;;;;;;17.90;13.90;;;;;;;14.12;82.24;99401.61;111670;1213;137658;-76
2021/08/27 03:36:57;;;;;;;20.10;13.60;;;;;;;14.16;82.22;99406.10;111461;1214;108788;-77
2021/08/27 03:41:02;;;;;;;21.70;16.00;;;;;;;14.13;82.31;99409.75;110834;1219;107810;-78
2021/08/27 04:08:48;;;;;;;17.20;13.40;;;;;;;14.34;81.88;99402.02;112067;1209;137710;-76
2021/08/27 04:12:45;;;;;;;;;;;;;;;;;;;;;
2021/08/27 04:16:56;;;;;;;16.60;12.60;;;;;;;14.33;81.88;99411.02;111475;1220;136357;-77
2021/08/27 04:30:06;;;;;;;18.20;13.70;;;;;;;14.48;82.17;99417.96;110764;1227;95209;-76
2021/08/27 04:53:48;;;;;;;;;;;;;;;;;;;;;
2021/08/27 04:58:21;;;;;;;24.50;16.30;;;;;;;15.57;80.35;99431.91;110912;1216;137840;-76
2021/08/27 05:06:30;;;;;;;18.90;14.60;;;;;;;15.98;78.83;99438.15;110495;1221;137157;-75
2021/08/27 05:10:02;;;;;;;;;;;;;;;;;;;;;
2021/08/27 05:22:12;;;;;;;;;;;;;;;;;;;;;
2021/08/27 05:34:26;;;;;;;26.40;20.40;;;;;;;15.61;77.33;99470.19;111364;1220;636909;-76
2021/08/27 05:38:37;;;;;;;21.00;18.00;;;;;;;15.53;77.24;99470.67;112369;1208;93965;-77
2021/08/27 05:42:46;;;;;;;21.20;16.60;;;;;;;15.49;77.24;99470.13;112316;1202;93915;-77
2021/08/27 05:54:47;;;;;;;20.60;17.20;;;;;;;15.52;77.29;99471.81;111954;1214;137012;-77
2021/08/27 05:59:20;;;;;;;26.10;18.20;;;;;;;15.49;77.03;99479.59;111819;1211;137229;-75
2021/08/27 06:14:55;;;;;;;19.20;15.80;;;;;;;15.23;77.62;99484.70;109854;1232;108807;-78
2021/08/27 06:26:48;;;;;;;20.30;14.70;;;;;;;15.45;77.52;99490.81;111443;1220;636641;-77
2021/08/27 06:30:57;;;;;;;13.30;11.50;;;;;;;15.60;77.46;99496.91;111882;1216;137069;-77
2021/08/27 06:35:23;;;;;;;13.60;10.80;;;;;;;15.65;76.79;99510.79;111495;1219;137252;-78
2021/08/27 06:38:58;;;;;;;13.70;11.30;;;;;;;15.61;76.96;99511.92;111714;1220;108156;-78
2021/08/27 06:42:34;;;;;;;15.10;11.50;;;;;;;15.68;76.56;99510.41;111541;1219;137271;-78
2021/08/27 06:46:23;;;;;;;16.50;11.80;;;;;;;15.79;76.65;99503.02;111650;1222;106544;-78
2021/08/27 06:55:05;;;;;;;13.30;10.50;;;;;;;16.18;76.18;99506.41;110346;1226;136781;-77
2021/08/27 07:03:17;;;;;;;12.20;10.20;;;;;;;16.69;75.60;99506.25;110275;1225;106911;-77
2021/08/27 07:06:48;;;;;;;;;;;;;;;;;;;;;
2021/08/27 07:14:54;;;;;;;;;;;;;;;;;;;;;
2021/08/27 07:19:25;;;;;;;11.00;9.10;;;;;;;17.93;72.70;99524.16;110129;1233;136985;-78
2021/08/27 07:26:37;;;;;;;;;;;;;;;;;;;;;
2021/08/27 07:30:53;;;;;;;9.30;8.30;;;;;;;18.67;70.75;99528.38;112229;1208;136762;-77
2021/08/27 07:34:56;;;;;;;8.70;7.90;;;;;;;18.87;70.19;99533.34;112300;1203;94078;-78
2021/08/27 07:38:56;;;;;;;;;;;;;;;;;;;;;
2021/08/27 07:42:55;;;;;;;;;;;;;;;;;;;;;
2021/08/27 07:46:22;;;;;;;10.70;7.90;;;;;;;19.58;67.19;99540.80;111699;1218;108737;-78
2021/08/27 07:50:05;;;;;;;;;;;;;;;;;;;;;
2021/08/27 07:54:05;;;;;;;8.70;7.80;;;;;;;19.78;66.72;99544.15;111862;1211;93927;-77
2021/08/27 07:58:03;;;;;;;;;;;;;;;;;;;;;
2021/08/27 08:01:46;;;;;;;7.20;6.50;;;;;;;20.16;65.42;99536.73;111448;1221;136822;-77
2021/08/27 08:09:20;;;;;;;7.90;6.50;;;;;;;20.35;64.06;99541.52;111019;1216;136592;-77
2021/08/27 08:12:57;;;;;;;8.70;6.50;;;;;;;20.50;63.98;99548.23;111839;1211;94819;-79
2021/08/27 08:16:57;;;;;;;;;;;;;;;;;;;;;
2021/08/27 08:20:56;;;;;;;6.30;5.50;;;;;;;20.77;62.97;99551.73;111450;1214;136895;-77
2021/08/27 08:24:48;;;;;;;6.60;5.50;;;;;;;21.16;62.69;99561.27;111611;1221;108537;-77
2021/08/27 08:28:22;;;;;;;;;;;;;;;;;;;;;
2021/08/27 08:32:41;;;;;;;6.00;5.40;;;;;;;24.53;59.75;99550.64;111102;1217;136723;-76
2021/08/27 08:36:17;;;;;;;;;;;;;;;;;;;;;
2021/08/27 08:39:59;;;;;;;6.30;5.00;;;;;;;25.07;54.42;99548.53;110540;1219;136874;-76
2021/08/27 08:43:40;;;;;;;;;;;;;;;;;;;;;
2021/08/27 08:47:43;;;;;;;6.50;5.00;;;;;;;23.79;54.38;99554.90;110558;1220;94923;-76
2021/08/27 08:59:47;;;;;;;6.60;5.50;;;;;;;22.24;54.82;99555.70;111074;1216;137346;-78
2021/08/27 09:03:45;;;;;;;7.70;4.90;;;;;;;21.83;56.25;99555.55;111169;1216;137053;-77
2021/08/27 09:07:06;;;;;;;6.50;5.00;;;;;;;22.39;57.57;99548.44;111405;1215;94869;-79
2021/08/27 09:10:44;;;;;;;6.20;4.50;;;;;;;24.32;56.89;99546.91;111396;1221;136539;-79
2021/08/27 09:14:28;;;;;;;5.70;4.30;;;;;;;25.77;53.87;99546.88;110895;1225;109433;-79
2021/08/27 09:17:57;;;;;;;4.80;4.00;;;;;;;26.20;52.07;99536.71;110902;1225;107214;-79
2021/08/27 09:20:59;;;;;;;;;;;;;;;;;;;;;
2021/08/27 09:24:57;;;;;;;5.20;4.00;;;;;;;26.03;50.02;99543.58;110729;1222;94868;-80
2021/08/27 09:28:56;;;;;;;6.00;3.80;;;;;;;25.64;50.12;99541.45;110616;1227;137115;-77
2021/08/27 09:32:02;;;;;;;5.00;4.40;;;;;;;25.40;50.46;99545.42;110589;1228;108608;-80
2021/08/27 09:35:51;;;;;;;4.70;3.70;;;;;;;25.07;50.32;99548.52;110294;1230;136761;-79
2021/08/27 09:38:41;;;;;;;6.30;3.80;;;;;;;25.51;50.73;99549.45;110169;1229;108459;-80
2021/08/27 09:42:33;;;;;;;3.90;3.50;;;;;;;25.88;49.91;99553.71;110345;1228;136706;-80
2021/08/27 09:45:35;;;;;;;3.10;2.80;;;;;;;26.45;49.25;99552.19;110618;1221;136888;-80
2021/08/27 09:53:04;;;;;;;;;;;;;;;;;;;;;
2021/08/27 09:56:35;;;;;;;3.40;3.10;;;;;;;24.91;47.59;99568.27;110648;1222;109376;-80
2021/08/27 10:09:13;;;;;;;4.40;2.90;;;;;;;23.86;49.40;99575.79;110314;1230;108656;-80
2021/08/27 10:13:15;;;;;;;8.00;5.20;;;;;;;23.44;49.85;99573.89;110347;1222;137377;-79
2021/08/27 10:16:46;;;;;;;;;;;;;;;;;;;;;
2021/08/27 10:23:44;;;;;;;11.80;8.80;;;;;;;21.88;52.82;99583.05;111234;1223;636080;-79
2021/08/27 10:26:50;;;;;;;13.20;10.70;;;;;;;21.39;53.68;99585.65;112276;1210;93967;-78
2021/08/27 10:29:58;;;;;;;16.90;10.50;;;;;;;21.00;54.54;99587.24;112183;1209;136571;-77
2021/08/27 10:32:46;;;;;;;16.40;13.10;;;;;;;20.60;55.37;99594.70;112312;1210;107095;-78
2021/08/27 10:35:48;;;;;;;15.10;13.50;;;;;;;20.28;56.33;99597.54;112223;1211;135600;-80
2021/08/27 10:38:41;;;;;;;18.40;13.50;;;;;;;19.95;57.45;99604.48;112302;1207;108484;-79
2021/08/27 10:41:39;;;;;;;16.10;13.50;;;;;;;19.69;58.15;99601.95;112145;1210;136805;-78
2021/08/27 10:44:47;;;;;;;14.30;12.20;;;;;;;19.46;59.06;99602.05;112312;1210;93959;-78
2021/08/27 10:47:55;;;;;;;16.80;11.50;;;;;;;19.32;59.65;99605.74;112231;1211;137497;-80
2021/08/27 10:50:47;;;;;;;13.70;10.40;;;;;;;19.24;60.33;99603.27;112413;1206;105053;-79
2021/08/27 10:53:37;;;;;;;11.40;9.90;;;;;;;19.32;60.88;99602.27;112154;1211;137002;-78
2021/08/27 10:56:43;;;;;;;13.50;10.10;;;;;;;19.39;60.63;99602.42;112321;1210;94875;-78
2021/08/27 10:59:38;;;;;;;10.70;9.50;;;;;;;19.39;61.06;99607.38;112185;1209;136760;-80
2021/08/27 11:02:26;;;;;;;9.70;8.70;;;;;;;19.35;60.84;99613.67;112280;1211;108317;-81
2021/08/27 11:05:30;;;;;;;12.70;9.70;;;;;;;19.15;60.88;99613.77;112351;1208;137007;-81
2021/08/27 11:08:34;;;;;;;10.80;8.90;;;;;;;18.96;61.34;99617.04;112423;1207;108487;-79
2021/08/27 11:11:22;;;;;;;11.40;8.20;;;;;;;18.81;61.87;99617.51;112381;1206;137018;-78
2021/08/27 11:14:20;;;;;;;8.90;7.10;;;;;;;18.75;61.90;99616.21;112345;1208;94851;-78
2021/08/27 11:17:10;;;;;;;6.70;5.50;;;;;;;18.63;61.32;99612.65;112234;1209;136900;-78
2021/08/27 11:19:59;;;;;;;5.20;4.40;;;;;;;18.48;61.33;99613.42;112363;1201;106399;-78
2021/08/27 11:22:55;;;;;;;4.10;3.50;;;;;;;18.40;61.68;99614.72;112202;1202;136739;-81
2021/08/27 11:26:03;;;;;;;;;;;;;;;18.34;61.28;99618.06;112384;1209;95370;-81
2021/08/27 11:28:50;;;;;;;4.50;3.60;;;;;;;18.27;61.64;99626.32;112475;1201;123131;-81
2021/08/27 11:31:42;;;;;;;4.30;3.80;;;;;;;18.20;61.73;99632.84;112580;1207;108334;-80
2021/08/27 11:34:53;;;;;;;6.20;4.20;;;;;;;18.11;61.74;99633.80;112372;1202;136778;-80
2021/08/27 11:37:41;;;;;;;4.30;3.80;;;;;;;18.02;61.70;99624.81;112460;1201;108421;-78
2021/08/27 11:40:30;;;;;;;4.20;3.60;;;;;;;17.91;61.96;99619.56;112240;1208;136835;-79
2021/08/27 11:43:36;;;;;;;4.50;3.10;;;;;;;17.92;62.29;99622.86;112470;1199;94834;-78
2021/08/27 11:46:27;;;;;;;3.60;3.30;;;;;;;17.94;62.18;99627.27;112295;1208;135966;-77
2021/08/27 11:49:19;;;;;;;4.60;3.50;;;;;;;17.93;61.99;99625.63;112396;1202;107173;-81
2021/08/27 11:52:15;;;;;;;6.30;4.30;;;;;;;17.93;62.40;99627.67;112322;1206;136978;-80
2021/08/27 11:55:11;;;;;;;5.30;4.00;;;;;;;17.94;62.52;99617.98;112449;1208;93502;-80
2021/08/27 11:58:00;;;;;;;5.10;3.90;;;;;;;17.91;62.83;99615.86;112403;1205;136591;-80
2021/08/27 12:00:48;;;;;;;5.00;4.30;;;;;;;17.93;63.15;99616.80;112460;1207;108346;-80
2021/08/27 12:03:36;;;;;;;6.30;4.80;;;;;;;17.90;62.96;99621.76;112307;1208;136788;-78
2021/08/27 12:06:26;;;;;;;7.40;4.80;;;;;;;17.88;62.96;99621.20;112452;1202;107513;-78
2021/08/27 12:09:14;;;;;;;6.40;4.90;;;;;;;17.89;63.23;99621.67;112395;1202;95001;-78
2021/08/27 12:12:03;;;;;;;6.30;5.30;;;;;;;17.91;63.45;99620.83;112403;1207;135254;-80
2021/08/27 12:14:53;;;;;;;7.60;5.20;;;;;;;17.98;63.69;99623.16;112502;1207;109451;-80
2021/08/27 12:17:54;;;;;;;8.00;5.30;;;;;;;18.08;63.73;99626.58;112359;1208;138025;-82
2021/08/27 12:20:47;;;;;;;5.20;4.40;;;;;;;18.18;63.60;99624.84;112483;1203;109144;-77
2021/08/27 12:23:38;;;;;;;5.80;4.50;;;;;;;18.26;63.70;99629.70;112390;1203;136988;-79
2021/08/27 12:26:28;;;;;;;6.70;4.40;;;;;;;18.31;64.12;99629.48;112619;1205;94813;-79
2021/08/27 12:29:16;;;;;;;6.60;4.50;;;;;;;18.45;64.44;99629.84;112484;1205;137107;-81
2021/08/27 12:32:06;;;;;;;7.20;4.80;;;;;;;18.69;64.51;99631.97;112696;1205;106121;-80
2021/08/27 12:34:55;;;;;;;5.10;4.30;;;;;;;18.98;64.40;99632.38;112461;1205;136327;-80
2021/08/27 12:37:43;;;;;;;4.80;3.90;;;;;;;19.30;63.97;99632.02;112483;1198;94833;-80
2021/08/27 12:40:33;;;;;;;5.40;3.60;;;;;;;19.71;63.19;99631.09;112436;1206;136643;-80
2021/08/27 12:43:23;;;;;;;4.10;3.70;;;;;;;19.97;62.78;99632.00;112610;1205;108367;-82
2021/08/27 12:46:28;;;;;;;5.50;3.40;;;;;;;20.17;61.64;99629.66;112581;1201;137042;-81
2021/08/27 12:49:19;;;;;;;4.80;3.40;;;;;;;20.31;60.48;99629.38;112639;1205;109078;-79
2021/08/27 12:52:07;;;;;;;3.70;3.30;;;;;;;20.34;59.25;99627.95;112500;1198;136898;-78
2021/08/27 12:54:54;;;;;;;4.40;3.40;;;;;;;20.36;58.78;99628.65;112601;1205;94918;-77
2021/08/27 12:57:48;;;;;;;3.20;2.90;;;;;;;20.34;58.18;99623.48;112461;1205;136645;-80
2021/08/27 13:00:37;;;;;;;3.10;2.60;;;;;;;20.32;58.13;99624.45;112627;1198;106255;-80
2021/08/27 13:03:24;;;;;;;3.30;2.80;;;;;;;20.29;57.94;99629.23;112548;1204;107543;-79
2021/08/27 13:06:35;;;;;;;3.00;2.60;;;;;;;20.30;58.04;99630.73;112530;1205;136380;-79
2021/08/27 13:09:45;;;;;;;3.90;2.80;;;;;;;20.43;58.13;99627.34;112610;1199;94994;-85
2021/08/27 13:12:34;;;;;;;4.80;2.80;;;;;;;20.65;57.97;99626.25;112533;1199;136596;-79
2021/08/27 13:15:26;;;;;;;6.40;3.40;;;;;;;20.80;58.26;99628.30;112691;1204;106309;-81
2021/08/27 13:18:14;;;;;;;6.40;4.20;;;;;;;20.94;58.00;99632.24;112454;1198;136971;-77
2021/08/27 13:21:01;;;;;;;5.70;4.20;;;;;;;21.05;57.74;99627.23;112596;1198;94818;-81
2021/08/27 13:24:10;;;;;;;5.20;4.60;;;;;;;21.13;57.34;99624.79;112438;1206;136750;-80
2021/08/27 13:26:58;;;;;;;4.80;4.20;;;;;;;21.17;57.30;99627.14;112637;1198;108425;-80
2021/08/27 13:29:46;;;;;;;5.30;4.20;;;;;;;21.24;56.86;99633.10;112458;1198;137033;-81
2021/08/27 13:32:50;;;;;;;5.50;3.60;;;;;;;21.35;56.76;99635.35;112614;1205;108482;-81
2021/08/27 13:35:41;;;;;;;5.00;4.30;;;;;;;21.55;56.10;99635.38;112554;1199;136898;-80
2021/08/27 13:38:29;;;;;;;5.50;4.30;;;;;;;21.71;56.36;99632.38;112695;1199;94830;-80
2021/08/27 13:41:17;;;;;;;6.20;4.10;;;;;;;21.97;56.02;99628.62;112519;1205;136959;-81
2021/08/27 13:44:05;;;;;;;4.10;3.70;;;;;;;22.16;55.11;99629.41;112456;1200;107294;-79
2021/08/27 13:46:53;;;;;;;4.70;4.10;;;;;;;22.30;55.01;99623.94;112547;1205;137129;-77
2021/08/27 13:49:40;;;;;;;5.30;4.30;;;;;;;22.40;54.44;99623.16;112576;1205;94841;-78
2021/08/27 13:52:28;;;;;;;5.10;4.20;;;;;;;22.42;54.42;99626.90;112581;1198;136943;-79
2021/08/27 13:55:16;;;;;;;;;;;;;;;22.45;54.29;99624.48;112644;1205;108397;-80
2021/08/27 13:58:05;;;;;;;5.00;4.50;;;;;;;22.41;53.40;99623.77;112572;1205;109558;-79
2021/08/27 14:00:54;;;;;;;5.00;4.50;;;;;;;22.34;53.27;99623.89;112642;1199;106319;-80
2021/08/27 14:03:42;;;;;;;4.90;3.90;;;;;;;22.27;53.32;99624.17;112621;1199;94870;-79
2021/08/27 14:06:30;;;;;;;5.70;4.80;;;;;;;22.19;52.95;99627.53;112519;1205;136533;-82
2021/08/27 14:09:18;;;;;;;6.50;4.60;;;;;;;22.09;52.94;99620.31;112608;1199;109418;-81
2021/08/27 14:12:05;;;;;;;6.50;4.40;;;;;;;22.02;53.40;99622.95;112496;1203;137046;-79
2021/08/27 14:14:53;;;;;;;4.80;4.30;;;;;;;22.05;53.41;99619.98;112606;1199;106104;-82
2021/08/27 14:17:44;;;;;;;5.80;4.70;;;;;;;22.07;53.53;99621.59;112549;1205;137675;-79
2021/08/27 14:20:31;;;;;;;5.90;5.30;;;;;;;22.11;53.27;99619.77;112623;1203;95386;-82
2021/08/27 14:23:18;;;;;;;5.70;4.90;;;;;;;22.05;52.96;99617.61;112507;1198;137306;-81
2021/08/27 14:26:06;;;;;;;6.20;5.40;;;;;;;21.99;53.02;99620.63;112629;1198;107421;-80
2021/08/27 14:28:53;;;;;;;5.90;5.10;;;;;;;21.96;53.09;99618.76;112531;1203;137195;-78
2021/08/27 14:31:40;;;;;;;6.00;5.00;;;;;;;21.93;53.17;99617.11;112533;1203;95175;-81
2021/08/27 14:34:30;;;;;;;6.30;5.20;;;;;;;21.87;52.97;99621.18;112663;1203;94857;-81
2021/08/27 14:37:19;;;;;;;5.90;4.70;;;;;;;21.74;52.86;99617.41;112608;1205;108387;-80
2021/08/27 14:40:09;;;;;;;8.10;4.90;;;;;;;21.61;53.23;99616.93;112645;1202;107242;-79
2021/08/27 14:42:56;;;;;;;4.40;4.00;;;;;;;21.54;53.33;99617.55;112493;1203;136950;-78
2021/08/27 14:45:43;;;;;;;4.00;3.60;;;;;;;21.45;53.46;99614.27;112561;1201;94916;-80
2021/08/27 14:48:30;;;;;;;4.70;4.10;;;;;;;21.37;53.49;99616.92;112525;1198;136050;-78
2021/08/27 14:51:17;;;;;;;5.50;4.40;;;;;;;21.29;53.75;99622.61;112595;1199;108402;-79
2021/08/27 14:54:05;;;;;;;7.20;6.30;;;;;;;21.19;53.99;99621.16;112509;1199;136917;-82
2021/08/27 14:56:52;;;;;;;5.60;4.60;;;;;;;21.11;54.23;99621.36;112565;1203;106111;-78
2021/08/27 14:59:39;;;;;;;6.40;4.60;;;;;;;21.06;54.26;99627.19;112512;1205;137381;-78
2021/08/27 15:02:27;;;;;;;5.10;4.40;;;;;;;20.97;54.43;99634.65;112578;1198;94805;-78
2021/08/27 15:05:15;;;;;;;5.90;4.60;;;;;;;20.89;54.64;99632.86;112493;1205;136791;-81
2021/08/27 15:08:02;;;;;;;8.20;7.10;;;;;;;20.82;54.97;99629.09;112582;1198;107245;-81
2021/08/27 15:11:07;;;;;;;6.60;4.70;;;;;;;20.77;55.11;99632.35;112496;1206;137590;-80
2021/08/27 15:13:55;;;;;;;6.20;3.70;;;;;;;20.67;54.89;99628.77;112574;1205;96226;-79
2021/08/27 15:16:44;;;;;;;6.00;4.30;;;;;;;20.60;55.03;99630.08;112548;1199;96146;-81
2021/08/27 15:19:31;;;;;;;5.20;4.40;;;;;;;20.52;55.05;99628.43;112526;1205;136877;-81
2021/08/27 15:22:18;;;;;;;4.60;4.00;;;;;;;20.43;54.97;99633.05;112589;1201;106671;-80
2021/08/27 15:25:06;;;;;;;5.80;4.90;;;;;;;20.38;55.04;99639.79;112512;1199;137239;-82
2021/08/27 15:28:17;;;;;;;6.30;4.30;;;;;;;20.31;55.44;99638.44;112553;1199;97013;-80
2021/08/27 15:31:05;;;;;;;5.10;4.30;;;;;;;20.28;55.73;99637.07;112502;1197;136935;-80
2021/08/27 15:33:53;;;;;;;6.20;4.60;;;;;;;20.27;56.19;99636.77;112678;1201;110793;-78
2021/08/27 15:36:41;;;;;;;5.30;4.80;;;;;;;20.25;56.07;99634.52;112483;1198;137867;-80
2021/08/27 15:39:28;;;;;;;6.90;5.40;;;;;;;20.21;55.94;99638.50;112529;1203;106297;-80
2021/08/27 15:42:16;;;;;;;6.40;5.40;;;;;;;20.17;55.75;99644.49;112410;1203;137345;-79
2021/08/27 15:45:04;;;;;;;8.90;5.30;;;;;;;20.11;55.57;99640.20;112600;1205;96547;-83
2021/08/27 15:47:52;;;;;;;6.20;5.30;;;;;;;20.08;55.97;99640.79;112439;1199;137330;-81
2021/08/27 15:50:43;;;;;;;6.20;5.10;;;;;;;20.06;56.28;99642.55;112589;1203;106317;-80
2021/08/27 15:53:34;;;;;;;5.80;4.90;;;;;;;20.03;56.00;99644.40;112466;1200;137246;-79
2021/08/27 15:56:21;;;;;;;6.70;5.30;;;;;;;20.00;56.12;99647.89;112762;1198;95150;-80
2021/08/27 15:59:09;;;;;;;8.40;5.60;;;;;;;19.98;56.47;99645.86;112591;1199;96734;-78
2021/08/27 16:01:57;;;;;;;6.40;5.40;;;;;;;19.96;56.34;99645.17;112592;1206;110724;-79
2021/08/27 16:04:45;;;;;;;7.40;5.70;;;;;;;19.93;56.32;99646.13;112530;1205;107683;-78
2021/08/27 16:07:33;;;;;;;;;;;;;;;19.89;56.52;99645.55;112467;1206;137385;-80
2021/08/27 16:10:21;;;;;;;8.60;6.70;;;;;;;19.82;56.87;99644.83;112529;1198;96296;-79
2021/08/27 16:13:09;;;;;;;6.30;5.60;;;;;;;19.77;57.05;99650.39;112473;1198;135911;-80
2021/08/27 16:15:57;;;;;;;7.80;5.80;;;;;;;19.71;57.37;99656.14;112476;1205;109810;-78
2021/08/27 16:18:48;;;;;;;7.50;6.40;;;;;;;19.65;57.07;99656.99;112442;1205;136174;-81
2021/08/27 16:21:39;;;;;;;9.30;7.20;;;;;;;19.55;57.14;99658.09;112489;1202;108448;-78
2021/08/27 16:24:26;;;;;;;;;;;;;;;19.45;57.30;99654.63;112441;1200;136932;-79
2021/08/27 16:27:15;;;;;;;8.40;6.50;;;;;;;19.36;57.39;99649.52;112548;1205;96298;-79
2021/08/27 16:30:03;;;;;;;10.00;6.20;;;;;;;19.29;57.97;99650.98;112489;1198;137320;-77
2021/08/27 16:32:52;;;;;;;9.30;7.00;;;;;;;19.24;57.81;99649.45;112468;1200;107157;-79
2021/08/27 16:35:41;;;;;;;10.80;7.30;;;;;;;19.17;58.16;99654.19;112402;1199;136217;-78
2021/08/27 16:38:28;;;;;;;8.50;7.00;;;;;;;19.10;58.32;99657.36;112504;1205;96686;-82
2021/08/27 16:41:14;;;;;;;9.10;7.50;;;;;;;19.04;58.22;99658.21;112599;1205;96234;-78
2021/08/27 16:44:02;;;;;;;9.60;7.10;;;;;;;18.98;58.53;99660.42;112458;1200;136779;-79
2021/08/27 16:46:50;;;;;;;9.70;7.30;;;;;;;18.92;58.48;99660.86;112558;1200;104883;-79
2021/08/27 16:49:38;;;;;;;7.90;6.80;;;;;;;18.85;58.95;99656.46;112448;1200;137920;-84
2021/08/27 16:52:26;;;;;;;10.50;6.90;;;;;;;18.82;58.74;99656.56;112543;1198;96351;-80
2021/08/27 16:55:13;;;;;;;6.70;6.00;;;;;;;18.79;58.71;99660.09;112483;1197;137588;-79
2021/08/27 16:58:02;;;;;;;6.90;6.20;;;;;;;18.79;58.96;99658.15;112623;1198;110767;-79
2021/08/27 17:00:49;;;;;;;7.70;5.70;;;;;;;18.77;58.86;99662.90;112511;1200;137027;-81
2021/08/27 17:03:37;;;;;;;6.30;5.50;;;;;;;18.71;58.68;99664.21;112504;1202;108015;-81
2021/08/27 17:06:26;;;;;;;5.30;4.80;;;;;;;18.65;58.32;99667.13;112501;1205;137142;-81
2021/08/27 17:09:13;;;;;;;;;;;;;;;18.53;58.27;99674.89;112549;1203;96187;-80
2021/08/27 17:12:00;;;;;;;5.10;4.60;;;;;;;18.38;58.29;99678.06;112530;1199;123601;-81
2021/08/27 17:14:48;;;;;;;5.60;4.40;;;;;;;18.26;58.37;99680.17;112618;1205;106161;-79
2021/08/27 17:17:34;;;;;;;5.30;4.50;;;;;;;18.16;58.78;99677.25;112605;1196;106372;-83
2021/08/27 17:20:27;;;;;;;5.10;4.20;;;;;;;18.08;59.11;99677.30;112443;1205;137538;-86
2021/08/27 17:23:15;;;;;;;7.00;5.10;;;;;;;17.98;59.52;99680.11;112617;1205;96186;-81
2021/08/27 17:26:02;;;;;;;6.60;5.40;;;;;;;17.90;59.57;99677.04;112364;1201;135961;-81
2021/08/27 17:28:49;;;;;;;5.10;4.30;;;;;;;17.80;59.81;99679.50;112565;1200;107195;-82
2021/08/27 17:31:37;;;;;;;7.50;5.40;;;;;;;17.73;60.10;99681.90;112445;1198;137385;-83
2021/08/27 17:34:29;;;;;;;7.40;5.60;;;;;;;17.69;60.56;99688.70;112496;1199;96358;-82
2021/08/27 17:37:16;;;;;;;6.10;5.20;;;;;;;17.64;60.69;99685.51;112555;1197;136163;-82
2021/08/27 17:40:05;;;;;;;5.70;5.10;;;;;;;17.60;60.75;99687.54;112605;1198;111009;-83
2021/08/27 17:42:54;;;;;;;5.30;4.70;;;;;;;17.55;60.73;99684.16;112438;1199;137177;-82
2021/08/27 17:45:42;;;;;;;6.60;5.10;;;;;;;17.51;60.91;99686.59;112587;1206;108464;-86
2021/08/27 17:53:38;;;;;;;;;;;;;;;;;;;;;
2021/08/27 18:01:37;;;;;;;7.60;6.20;;;;;;;17.14;61.75;99702.34;111826;1217;137639;-77
2021/08/27 18:05:44;;;;;;;;;;;;;;;;;;;;;
2021/08/27 18:09:52;;;;;;;;;;;;;;;;;;;;;
2021/08/27 18:13:26;;;;;;;7.90;4.60;;;;;;;16.98;62.80;99714.80;111591;1214;137211;-76
2021/08/27 18:17:27;;;;;;;8.90;7.00;;;;;;;16.96;63.07;99720.58;111774;1215;108453;-76
2021/08/27 18:21:20;;;;;;;14.90;11.80;;;;;;;16.95;63.48;99722.45;111681;1218;136993;-77
2021/08/27 18:25:39;;;;;;;;;;;;;;;;;;;;;
2021/08/27 18:33:31;;;;;;;24.50;21.20;;;;;;;16.85;63.65;99733.95;110850;1224;137331;-77
2021/08/27 18:46:13;;;;;;;10.10;7.60;;;;;;;16.83;64.36;99740.09;111399;1220;635011;-76
2021/08/27 18:50:21;;;;;;;7.20;5.70;;;;;;;16.80;64.44;99743.21;112066;1206;94061;-76
2021/08/27 18:54:30;;;;;;;8.10;5.90;;;;;;;16.76;64.55;99746.13;111980;1209;94193;-76
2021/08/27 18:58:29;;;;;;;;;;;;;;;;;;;;;
2021/08/27 19:07:12;;;;;;;7.60;5.90;;;;;;;16.64;65.43;99743.91;111424;1220;636132;-74
2021/08/27 19:11:20;;;;;;;8.70;6.70;;;;;;;16.58;65.77;99744.34;112069;1203;136971;-76
2021/08/27 19:15:28;;;;;;;8.70;7.10;;;;;;;16.54;66.13;99748.60;112222;1204;93863;-76
2021/08/27 19:23:11;;;;;;;9.60;7.60;;;;;;;16.49;66.58;99747.55;111947;1207;137026;-75
2021/08/27 19:27:45;;;;;;;10.00;7.60;;;;;;;16.44;66.85;99744.35;111922;1212;107707;-76
2021/08/27 19:31:50;;;;;;;10.40;8.40;;;;;;;16.45;67.14;99747.98;111124;1224;95192;-75
2021/08/27 19:47:10;;;;;;;;;;;;;;;;;;;;;
2021/08/27 19:51:18;;;;;;;12.70;10.10;;;;;;;16.36;68.13;99756.63;111995;1209;94211;-76
2021/08/27 19:55:26;;;;;;;13.00;9.40;;;;;;;16.34;68.37;99761.64;111426;1221;136891;-77
2021/08/27 20:08:12;;;;;;;;;;;;;;;;;;;;;
2021/08/27 20:15:59;;;;;;;13.20;10.30;;;;;;;16.19;68.98;99759.10;111497;1220;636708;-76
2021/08/27 20:20:07;;;;;;;12.20;9.70;;;;;;;16.10;69.22;99758.77;112213;1208;136892;-76
2021/08/27 20:24:16;;;;;;;13.10;10.40;;;;;;;16.05;69.35;99764.16;112134;1208;136772;-76
2021/08/27 20:28:26;;;;;;;13.00;9.70;;;;;;;16.04;69.44;99766.91;111948;1219;107763;-76
2021/08/27 20:53:11;;;;;;;11.90;10.30;;;;;;;15.92;70.10;99764.64;111187;1221;637465;-76
2021/08/27 20:57:20;;;;;;;13.90;11.20;;;;;;;15.85;70.10;99762.08;112322;1200;136366;-76
2021/08/27 21:01:53;;;;;;;14.10;10.10;;;;;;;15.80;70.27;99761.86;112123;1203;136786;-77
2021/08/27 21:05:37;;;;;;;15.10;11.80;;;;;;;15.79;70.37;99763.32;112101;1208;107262;-77
2021/08/27 21:18:14;;;;;;;;;;;;;;;;;;;;;
2021/08/27 21:26:40;;;;;;;15.30;11.20;;;;;;;15.64;71.13;99763.41;110522;1221;137103;-78
2021/08/27 21:30:13;;;;;;;;;;;;;;;;;;;;;
2021/08/27 21:34:48;;;;;;;17.40;12.80;;;;;;;15.66;71.56;99767.64;111395;1220;638141;-76
2021/08/27 21:38:45;;;;;;;;;;;;;;;;;;;;;
2021/08/27 21:42:55;;;;;;;16.20;12.60;;;;;;;15.58;71.78;99766.70;111414;1220;94205;-77
2021/08/27 21:59:53;;;;;;;23.20;15.00;;;;;;;15.53;72.75;99758.73;110350;1230;94115;-76